createdAt,value
2023-01-26T03:00:54.423Z,16.50
2023-01-26T03:03:27.607Z,17.00
2023-01-26T03:05:58.598Z,18.25
2023-01-26T03:08:30.878Z,16.25
2023-01-26T03:11:02.175Z,14.00
2023-01-26T03:13:32.645Z,11.25
2023-01-26T03:16:04.596Z,15.50
2023-01-26T03:18:42.283Z,13.50
2023-01-26T03:21:15.314Z,20.75
2023-01-26T03:23:45.873Z,14.50
2023-01-26T03:26:16.254Z,11.00
2023-01-26T03:28:46.778Z,15.00
2023-01-26T03:31:17.020Z,18.00
2023-01-26T03:33:47.448Z,12.50
2023-01-26T03:36:17.805Z,17.25
2023-01-26T03:38:48.171Z,20.00
2023-01-26T03:41:18.925Z,14.50
2023-01-26T03:43:50.104Z,16.25
2023-01-26T03:46:20.755Z,19.00
2023-01-26T03:48:52.671Z,7.00
2023-01-26T03:51:22.994Z,20.50
2023-01-26T03:53:54.011Z,16.75
2023-01-26T03:56:26.298Z,21.75
2023-01-26T03:58:59.797Z,16.00
2023-01-26T04:01:36.521Z,19.25
2023-01-26T04:04:11.926Z,20.75
2023-01-26T04:06:45.622Z,17.75
2023-01-26T04:09:16.093Z,15.00
2023-01-26T04:11:47.697Z,15.50
2023-01-26T04:14:18.359Z,19.50
2023-01-26T04:16:48.981Z,16.50
2023-01-26T04:19:19.950Z,15.00
2023-01-26T04:21:50.212Z,23.00
2023-01-26T04:24:21.251Z,11.00
2023-01-26T04:26:52.309Z,17.50
2023-01-26T04:29:24.084Z,18.25
2023-01-26T04:31:55.584Z,15.50
2023-01-26T04:34:26.233Z,17.25
2023-01-26T04:36:57.720Z,14.00
2023-01-26T04:39:28.765Z,14.75
2023-01-26T04:41:59.287Z,4.25
2023-01-26T04:44:31.640Z,14.00
2023-01-26T04:47:03.920Z,17.50
2023-01-26T04:49:35.320Z,17.25
2023-01-26T04:52:26.572Z,17.50
2023-01-26T04:54:57.992Z,18.25
2023-01-26T04:57:28.752Z,21.75
2023-01-26T04:59:59.249Z,22.75
2023-01-26T05:02:31.426Z,22.00
2023-01-26T05:05:01.818Z,17.50
2023-01-26T05:07:35.326Z,16.75
2023-01-26T05:10:09.555Z,16.75
2023-01-26T05:12:46.269Z,19.00
2023-01-26T05:15:17.820Z,19.00
2023-01-26T05:17:49.206Z,20.00
2023-01-26T05:20:43.239Z,14.25
2023-01-26T05:23:17.844Z,21.50
2023-01-26T05:25:49.647Z,19.50
2023-01-26T05:28:21.733Z,19.25
2023-01-26T05:30:53.872Z,22.00
2023-01-26T05:33:26.024Z,22.25
2023-01-26T05:36:14.429Z,24.00
2023-01-26T05:38:50.402Z,21.75
2023-01-26T05:41:45.330Z,18.50
2023-01-26T05:44:46.273Z,17.50
2023-01-26T05:47:21.295Z,16.25
2023-01-26T05:50:00.584Z,25.25
2023-01-26T05:52:31.724Z,21.25
2023-01-26T05:55:05.254Z,20.25
2023-01-26T05:57:35.823Z,18.25
2023-01-26T06:00:09.283Z,23.50
2023-01-26T06:02:40.489Z,27.00
2023-01-26T06:05:11.986Z,13.75
2023-01-26T06:07:43.672Z,22.50
2023-01-26T06:10:22.205Z,23.00
2023-01-26T06:12:53.996Z,23.25
2023-01-26T06:15:24.283Z,27.00
2023-01-26T06:17:54.873Z,20.00
2023-01-26T06:20:25.232Z,24.00
2023-01-26T06:23:17.987Z,23.00
2023-01-26T06:25:49.229Z,21.25
2023-01-26T06:28:20.397Z,24.00
2023-01-26T06:30:52.635Z,22.25
2023-01-26T06:33:24.412Z,23.75
2023-01-26T06:35:58.983Z,27.00
2023-01-26T06:38:33.324Z,22.50
2023-01-26T06:41:07.758Z,21.25
2023-01-26T06:43:45.279Z,22.75
2023-01-26T06:46:12.935Z,27.75
2023-01-26T06:52:06.094Z,30.75
2023-01-26T06:54:37.617Z,31.50
2023-01-26T06:57:09.831Z,32.75
2023-01-26T06:59:41.037Z,32.50
2023-01-26T07:02:17.977Z,29.00
2023-01-26T07:04:50.105Z,28.25
2023-01-26T07:07:23.175Z,28.50
2023-01-26T07:09:54.506Z,30.00
2023-01-26T07:12:26.254Z,30.75
2023-01-26T07:14:59.433Z,31.25
2023-01-26T07:23:21.757Z,28.25
2023-01-26T07:25:56.497Z,27.00
2023-01-26T11:04:07.876Z,25.50
2023-01-26T11:06:39.064Z,23.00
2023-01-26T11:09:36.599Z,23.50
2023-01-26T11:12:12.180Z,26.00
2023-01-26T11:14:46.615Z,23.25
2023-01-26T11:17:23.746Z,20.00
2023-01-26T11:20:03.450Z,22.75
2023-01-26T11:22:46.292Z,22.25
2023-01-26T11:25:29.987Z,22.75
2023-01-26T11:31:40.292Z,18.50
2023-01-26T11:34:47.923Z,23.50
2023-01-26T11:37:46.079Z,23.75
2023-01-26T11:40:19.387Z,18.50
2023-01-26T11:43:18.947Z,8.25
2023-01-26T11:46:13.103Z,21.50
2023-01-26T11:48:51.107Z,15.00
2023-01-26T11:51:45.268Z,18.25
2023-01-26T11:54:49.075Z,22.75
2023-01-26T11:57:38.379Z,24.00
2023-01-26T12:00:30.131Z,23.00
2023-01-26T12:03:01.694Z,20.00
2023-01-26T12:08:28.148Z,22.00
2023-01-26T12:11:02.088Z,20.75
2023-01-26T12:13:37.697Z,17.25
2023-01-26T12:16:21.819Z,22.75
2023-01-26T12:19:12.951Z,18.75
2023-01-26T12:21:45.978Z,23.25
2023-01-26T12:24:54.080Z,24.25
2023-01-26T12:26:58.294Z,19.75
2023-01-26T12:29:31.485Z,24.75
2023-01-26T12:32:10.907Z,26.00
2023-01-26T12:34:41.244Z,22.50
2023-01-26T12:37:31.435Z,20.00
2023-01-26T12:40:27.057Z,22.50
2023-01-26T12:43:21.831Z,24.25
2023-01-26T12:45:55.185Z,20.25
2023-01-26T12:48:44.763Z,22.00
2023-01-26T12:51:19.312Z,18.00
2023-01-26T12:54:07.140Z,20.75
2023-01-26T12:56:45.933Z,22.25
2023-01-26T12:59:46.900Z,20.25
2023-01-26T13:02:14.151Z,23.50
2023-01-26T13:04:49.020Z,18.75
2023-01-26T13:07:43.978Z,16.50
2023-01-26T13:10:21.609Z,25.00
2023-01-26T13:13:12.141Z,20.00
2023-01-26T13:15:44.936Z,12.00
2023-01-26T13:18:25.978Z,17.00
2023-01-26T13:20:57.021Z,28.00
2023-01-26T13:23:44.703Z,25.00
2023-01-26T13:26:29.444Z,28.00
2023-01-26T13:32:28.971Z,21.50
2023-01-26T13:35:06.288Z,18.00
2023-01-26T13:37:57.281Z,14.00
2023-01-26T13:40:40.839Z,16.25
2023-01-26T13:43:30.479Z,21.50
2023-01-26T13:46:27.810Z,21.00
2023-01-26T13:49:03.426Z,23.00
2023-01-26T13:51:37.246Z,28.50
2023-01-26T13:54:35.128Z,30.25
2023-01-26T13:57:07.899Z,27.00
2023-01-26T13:59:50.361Z,25.50
2023-01-26T14:02:43.730Z,24.75
2023-01-26T14:05:27.798Z,17.25
2023-01-26T14:07:59.791Z,24.00
2023-01-26T14:10:31.319Z,21.75
2023-01-26T14:13:07.657Z,11.75
2023-01-26T14:15:41.727Z,20.50
2023-01-26T14:18:17.555Z,17.00
2023-01-26T14:20:47.972Z,23.25
2023-01-26T14:23:20.475Z,23.75
2023-01-26T14:26:02.689Z,25.75
2023-01-26T14:28:39.559Z,28.25
2023-01-26T14:31:18.851Z,30.75
2023-01-26T14:33:54.866Z,27.50
2023-01-26T14:36:30.709Z,29.75
2023-01-26T14:39:01.313Z,30.00
2023-01-26T14:41:38.326Z,25.00
2023-01-26T14:44:10.402Z,29.25
2023-01-26T14:47:03.306Z,28.25
2023-01-26T14:49:53.984Z,27.00
2023-01-26T14:52:36.040Z,26.00
2023-01-26T14:55:11.486Z,18.50
2023-01-26T14:57:43.290Z,25.25
2023-01-26T15:00:38.609Z,24.50
2023-01-26T15:03:15.262Z,23.50
2023-01-26T15:05:46.105Z,26.50
2023-01-26T15:08:25.149Z,27.75
2023-01-26T15:11:03.753Z,23.00
2023-01-26T15:13:41.568Z,26.75
2023-01-26T15:19:14.363Z,18.25
2023-01-26T15:21:47.544Z,27.00
2023-01-26T15:24:18.278Z,30.25
2023-01-26T15:26:50.821Z,27.75
2023-01-26T15:29:28.253Z,30.75
2023-01-26T15:31:59.122Z,30.25
2023-01-26T15:34:40.523Z,33.25
2023-01-26T15:37:34.548Z,32.50
2023-01-26T15:40:05.924Z,28.25
2023-01-26T15:42:36.413Z,32.00
2023-01-26T15:45:26.339Z,32.75
2023-01-26T15:51:00.646Z,31.75
2023-01-26T15:53:36.857Z,31.75
2023-01-26T15:56:10.936Z,31.25
2023-01-26T15:58:42.744Z,32.50
2023-01-26T16:01:22.955Z,31.75
2023-01-26T16:03:53.855Z,31.25
2023-01-26T16:06:28.812Z,32.25
2023-01-26T16:11:41.065Z,29.25
2023-01-26T16:14:13.761Z,29.00
2023-01-26T16:16:44.483Z,14.50
2023-01-26T16:19:20.591Z,27.00
2023-01-26T16:21:50.415Z,28.25
2023-01-26T16:24:21.516Z,27.50
2023-01-26T16:26:53.297Z,30.25
2023-01-26T16:29:23.839Z,32.50
2023-01-26T19:44:42.028Z,71.75
2023-01-26T19:47:12.405Z,55.50
2023-01-26T19:50:15.319Z,40.00
2023-01-26T19:52:50.129Z,35.00
2023-01-26T19:55:20.733Z,22.75
2023-01-26T19:58:00.198Z,30.25
2023-01-26T20:00:29.144Z,25.00
2023-01-26T20:02:59.812Z,34.50
2023-01-26T20:05:31.004Z,34.50
2023-01-26T20:08:01.714Z,6.00
2023-01-26T20:10:33.244Z,32.00
2023-01-26T20:13:04.083Z,33.00
2023-01-26T20:15:37.709Z,34.00
2023-01-26T20:18:11.923Z,33.00
2023-01-26T20:20:45.545Z,31.50
2023-01-26T20:23:19.317Z,33.25
2023-01-26T20:25:59.461Z,30.25
2023-01-26T20:28:30.517Z,32.50
2023-01-26T20:31:10.025Z,30.00
2023-01-26T20:33:42.939Z,33.00
2023-01-26T20:36:22.855Z,31.00
2023-01-26T20:38:58.370Z,30.50
2023-01-26T20:41:32.833Z,30.00
2023-01-26T20:44:06.169Z,30.75
2023-01-26T20:46:42.920Z,28.00
2023-01-26T20:49:17.917Z,18.25
2023-01-26T20:51:49.740Z,33.00
2023-01-26T20:54:20.345Z,29.50
2023-01-26T20:56:52.615Z,29.00
2023-01-26T20:59:24.951Z,27.25
2023-01-26T21:02:01.958Z,28.25
2023-01-26T21:04:36.397Z,30.25
2023-01-26T21:07:08.446Z,30.75
2023-01-26T21:09:42.714Z,33.00
2023-01-26T21:12:17.467Z,29.50
2023-01-26T21:14:48.623Z,31.50
2023-01-26T21:17:23.240Z,31.00
2023-01-26T21:19:57.020Z,25.25
2023-01-26T21:22:27.641Z,31.00
2023-01-26T21:25:01.026Z,34.00
2023-01-26T21:27:32.552Z,31.75
2023-01-26T21:30:06.023Z,30.00
2023-01-26T21:32:37.440Z,27.25
2023-01-26T21:35:11.253Z,29.00
2023-01-26T21:37:59.328Z,18.00
2023-01-26T21:40:29.984Z,30.00
2023-01-26T21:43:03.744Z,13.00
2023-01-26T21:45:36.969Z,28.50
2023-01-26T21:48:08.369Z,30.50
2023-01-26T21:50:40.220Z,29.50
2023-01-26T21:53:13.904Z,28.25
2023-01-26T21:55:47.234Z,21.50
2023-01-26T21:58:23.493Z,24.00
2023-01-26T22:04:12.090Z,28.50
2023-01-26T22:06:44.562Z,24.75
2023-01-26T22:09:18.231Z,27.75
2023-01-26T22:11:50.380Z,25.25
2023-01-26T22:14:24.334Z,25.75
2023-01-26T22:16:58.381Z,30.00
2023-01-26T22:19:44.605Z,30.00
2023-01-26T22:22:15.140Z,26.25
2023-01-26T22:24:46.038Z,33.00
2023-01-26T22:27:16.800Z,33.00
2023-01-26T22:29:47.425Z,36.50
2023-01-26T22:32:20.842Z,40.50
2023-01-26T22:34:54.500Z,36.00
2023-01-26T22:37:25.311Z,39.50
2023-01-26T22:40:16.415Z,32.75
2023-01-26T22:42:46.928Z,39.75
2023-01-26T22:45:17.787Z,39.50
2023-01-26T22:47:50.978Z,35.50
2023-01-26T22:50:22.120Z,40.00
2023-01-26T22:52:52.700Z,39.00
2023-01-26T22:55:23.798Z,39.75
2023-01-26T22:57:54.166Z,40.50
2023-01-26T23:00:24.748Z,43.00
2023-01-26T23:02:57.371Z,40.50
2023-01-26T23:05:27.940Z,36.75
2023-01-26T23:07:58.333Z,36.25
2023-01-26T23:10:33.152Z,39.75
2023-01-26T23:13:12.783Z,41.25
2023-01-26T23:15:43.718Z,40.00
2023-01-26T23:18:14.165Z,39.50
2023-01-26T23:20:44.830Z,40.75
2023-01-26T23:23:16.287Z,33.50
2023-01-26T23:25:50.257Z,37.00
2023-01-26T23:28:27.530Z,33.00
2023-01-26T23:30:59.179Z,34.75
2023-01-26T23:33:32.391Z,34.25
2023-01-26T23:36:03.800Z,35.25
2023-01-26T23:38:35.517Z,38.00
2023-01-26T23:41:06.556Z,32.50
2023-01-26T23:43:36.905Z,35.50
2023-01-26T23:46:08.939Z,38.75
2023-01-26T23:48:40.064Z,39.50
2023-01-26T23:51:12.594Z,25.50
2023-01-26T23:53:44.097Z,34.00
2023-01-26T23:56:17.428Z,36.50
2023-01-26T23:58:47.816Z,7.00
